Arnold AFB, Tennessee
Current Conditions -  °F | °C
As of 5:55 PM on Friday 19 Dec 2014 (Local Time) from KTHA Reporting Station
Clear Clear  
Wind Chill: 36°   Ceiling: Unl
Heat Index: 36°   Visibility: 10mi
Dew Point: 25°   Wind: 3mph
Humidity: 65%   Direction: 50°NE
Pressure: 30.19"   Gusts: NA
Location:  35.36°N, 86.21°W
Report Text: KTHA 192355Z AUTO 05003KT 10SM CLR 02/M04 A3019 RMK
Loading
Personal Weather Stations






























Interactive Weather Map New forecast layout! Learn more

10-Day Weather Forecast

Advertisements
Track Severe Weather on mobile